Time;durP1;ratioP1;P1;durP2;ratioP2;P2;SDS_P1;SDS_P2;PMS_P1;PMS_P2;Temp;Humidity;BMP_temperature;BMP_pressure;BME280_temperature;BME280_humidity;BME280_pressure;Samples;Min_cycle;Max_cycle;Signal;HPM_P1;HPM_P2
2021/12/17 00:05:11;;;;;;;19.20;13.00;;;;;;;4.06;85.73;99229.45;106181;1323;22384;-59
2021/12/17 00:07:40;;;;;;;20.70;12.70;;;;;;;4.08;85.95;99225.73;106384;1322;23141;-59
2021/12/17 00:10:15;;;;;;;16.70;12.00;;;;;;;4.08;85.27;99224.97;106392;1322;23608;-59
2021/12/17 00:12:43;;;;;;;22.80;14.00;;;;;;;4.06;85.22;99209.98;106379;1322;23529;-59
2021/12/17 00:15:12;;;;;;;22.10;14.80;;;;;;;4.03;85.41;99211.48;106426;1323;22587;-58
2021/12/17 00:17:53;;;;;;;18.50;13.10;;;;;;;4.02;85.38;99219.41;106344;1321;22620;-59
2021/12/17 00:40:27;;;;;;;17.80;11.50;;;;;;;3.95;85.06;99218.94;106390;1322;22574;-59
2021/12/17 00:48:36;;;;;;;21.80;13.20;;;;;;;3.91;85.16;99216.89;106272;1323;22668;-59
2021/12/17 00:53:59;;;;;;;19.80;13.80;;;;;;;3.96;85.12;99225.05;106306;1323;22398;-59
2021/12/17 00:56:29;;;;;;;21.60;14.40;;;;;;;3.96;84.84;99230.82;106367;1323;22290;-59
2021/12/17 00:58:57;;;;;;;17.80;13.60;;;;;;;3.93;84.95;99226.52;106337;1323;22460;-59
2021/12/17 01:01:26;;;;;;;18.20;11.90;;;;;;;3.92;84.94;99223.33;106327;1323;22375;-59
2021/12/17 01:03:54;;;;;;;18.20;12.90;;;;;;;3.92;84.81;99219.80;106238;1325;22455;-59
2021/12/17 01:06:23;;;;;;;18.70;13.00;;;;;;;3.89;84.85;99208.14;106232;1323;23470;-59
2021/12/17 01:08:52;;;;;;;19.80;12.20;;;;;;;3.84;84.90;99206.96;106380;1323;22939;-60
2021/12/17 01:11:25;;;;;;;;;;;;;;;3.82;85.04;99205.75;106276;1323;22423;-60
2021/12/17 01:14:17;;;;;;;20.60;11.90;;;;;;;3.79;84.84;99207.44;106164;1322;22492;-60
2021/12/17 01:17:18;;;;;;;18.70;11.60;;;;;;;3.75;84.97;99215.42;106342;1323;22362;-59
2021/12/17 01:23:00;;;;;;;16.00;11.10;;;;;;;3.73;84.96;99204.02;106281;1323;22507;-60
2021/12/17 01:25:51;;;;;;;19.00;11.80;;;;;;;3.75;84.63;99211.32;106272;1323;22263;-60
2021/12/17 01:40:56;;;;;;;17.20;10.40;;;;;;;3.61;84.58;99192.89;106257;1323;22482;-60
2021/12/17 01:43:16;;;;;;;19.20;12.30;;;;;;;3.60;84.44;99198.20;106253;1323;23257;-60
2021/12/17 01:45:44;;;;;;;18.20;10.80;;;;;;;3.60;84.30;99196.59;106343;1323;23389;-60
2021/12/17 01:48:18;;;;;;;22.10;12.00;;;;;;;3.61;84.61;99195.73;106300;1320;23354;-60
2021/12/17 01:59:17;;;;;;;16.70;10.40;;;;;;;3.60;84.50;99204.71;105618;1324;22534;-59
2021/12/17 01:59:42;;;;;;;19.60;12.20;;;;;;;3.64;84.51;99199.31;106254;1323;23039;-60
2021/12/17 02:02:12;;;;;;;19.70;13.10;;;;;;;3.62;84.40;99197.36;106233;1324;23217;-60
2021/12/17 02:04:43;;;;;;;18.60;11.80;;;;;;;3.58;84.58;99191.95;106315;1316;22389;-59
2021/12/17 02:07:11;;;;;;;21.70;12.00;;;;;;;3.58;84.61;99188.26;106278;1323;22390;-60
2021/12/17 02:32:18;;;;;;;21.60;13.90;;;;;;;3.53;84.08;99193.84;106255;1323;22593;-60
2021/12/17 02:37:24;;;;;;;22.00;12.80;;;;;;;3.48;84.18;99184.14;106387;1322;22581;-60
2021/12/17 02:45:33;;;;;;;20.40;12.70;;;;;;;3.47;83.81;99189.11;106301;1320;22480;-60
2021/12/17 02:48:05;;;;;;;19.40;12.00;;;;;;;3.42;83.96;99181.28;106275;1322;23087;-59
2021/12/17 02:50:36;;;;;;;18.10;11.10;;;;;;;3.42;84.15;99177.20;106257;1323;22541;-58
2021/12/17 02:53:07;;;;;;;20.90;13.00;;;;;;;3.45;84.10;99173.64;106321;1322;22250;-60
2021/12/17 02:55:38;;;;;;;25.50;13.80;;;;;;;3.45;84.15;99174.09;106294;1323;22990;-60
2021/12/17 02:58:07;;;;;;;19.60;12.50;;;;;;;3.45;83.91;99181.92;106316;1322;22517;-59
2021/12/17 03:00:40;;;;;;;20.20;12.10;;;;;;;3.43;83.98;99168.16;106289;1323;23236;-60
2021/12/17 03:03:09;;;;;;;17.40;11.70;;;;;;;3.40;83.49;99175.38;106323;1323;22408;-59
2021/12/17 03:05:40;;;;;;;19.20;11.50;;;;;;;3.40;83.76;99176.50;106307;1323;22420;-60
2021/12/17 03:08:13;;;;;;;18.30;11.80;;;;;;;3.40;84.10;99174.14;106298;1323;22524;-59
2021/12/17 03:10:46;;;;;;;18.00;11.60;;;;;;;3.35;83.78;99173.63;106338;1323;22408;-59
2021/12/17 03:13:16;;;;;;;17.80;11.80;;;;;;;3.36;83.88;99171.36;106311;1323;22400;-59
2021/12/17 03:15:56;;;;;;;21.70;12.70;;;;;;;3.36;84.04;99171.10;106331;1323;22416;-60
2021/12/17 03:18:54;;;;;;;16.30;11.60;;;;;;;3.33;84.09;99174.91;106238;1323;22536;-60
2021/12/17 03:24:06;;;;;;;17.90;11.20;;;;;;;3.35;83.83;99160.25;106261;1323;22415;-60
2021/12/17 03:26:36;;;;;;;18.30;13.10;;;;;;;3.36;84.00;99159.42;106333;1322;22506;-59
2021/12/17 03:29:06;;;;;;;20.60;13.50;;;;;;;3.37;83.86;99163.67;106245;1323;22262;-60
2021/12/17 03:31:36;;;;;;;17.20;12.50;;;;;;;3.35;84.35;99163.41;106253;1323;22534;-60
2021/12/17 03:36:45;;;;;;;19.20;11.40;;;;;;;3.32;83.88;99155.53;106334;1323;22710;-60
2021/12/17 03:39:14;;;;;;;20.30;12.00;;;;;;;3.31;83.91;99156.48;106245;1323;22553;-60
2021/12/17 03:41:50;;;;;;;18.50;10.60;;;;;;;3.26;83.90;99163.88;106256;1323;22400;-59
2021/12/17 03:44:24;;;;;;;17.40;10.30;;;;;;;3.23;83.80;99163.04;106291;1323;23102;-61
2021/12/17 03:47:03;;;;;;;16.90;10.80;;;;;;;3.23;83.74;99167.07;106345;1322;22599;-59
2021/12/17 03:49:46;;;;;;;21.70;12.20;;;;;;;3.20;83.43;99162.79;106289;1323;22573;-59
2021/12/17 03:52:16;;;;;;;17.30;11.10;;;;;;;3.17;83.52;99171.05;106327;1323;22478;-60
2021/12/17 03:54:46;;;;;;;18.70;10.80;;;;;;;3.17;83.84;99167.70;106254;1323;22474;-59
2021/12/17 03:57:18;;;;;;;17.10;10.50;;;;;;;3.17;83.77;99173.83;106296;1323;23252;-60
2021/12/17 03:59:48;;;;;;;19.00;10.30;;;;;;;3.15;83.82;99170.21;106261;1322;22499;-59
2021/12/17 04:02:19;;;;;;;18.00;10.50;;;;;;;3.15;84.11;99168.06;106248;1323;22436;-59
2021/12/17 04:04:48;;;;;;;21.30;11.00;;;;;;;3.18;84.26;99173.58;106255;1323;23797;-59
2021/12/17 04:07:34;;;;;;;18.50;11.50;;;;;;;3.17;84.03;99168.66;106349;1322;22265;-59
2021/12/17 04:10:09;;;;;;;14.00;10.30;;;;;;;3.16;83.81;99166.30;106316;1323;23148;-58
2021/12/17 04:15:13;;;;;;;18.10;10.20;;;;;;;3.18;83.93;99163.41;106290;1320;22477;-59
2021/12/17 04:17:46;;;;;;;19.80;10.50;;;;;;;3.18;83.94;99168.28;106233;1323;23129;-59
2021/12/17 04:20:15;;;;;;;20.30;11.50;;;;;;;3.19;84.08;99159.97;106240;1323;22614;-59
2021/12/17 04:22:44;;;;;;;20.30;10.50;;;;;;;3.20;83.94;99166.80;106274;1323;23159;-58
2021/12/17 04:25:12;;;;;;;17.50;10.00;;;;;;;3.17;84.12;99166.41;106306;1323;22411;-59
2021/12/17 04:27:42;;;;;;;18.20;10.10;;;;;;;3.15;84.24;99166.06;106264;1323;22551;-58
2021/12/17 04:30:11;;;;;;;16.50;11.70;;;;;;;3.16;84.08;99161.96;106373;1322;22434;-58
2021/12/17 04:32:39;;;;;;;20.40;11.70;;;;;;;3.14;84.06;99168.20;106378;1322;22372;-59
2021/12/17 04:35:08;;;;;;;19.60;11.40;;;;;;;3.12;84.26;99162.49;106337;1323;22515;-59
2021/12/17 04:37:44;;;;;;;19.30;11.60;;;;;;;3.12;83.94;99156.90;106273;1323;22381;-59
2021/12/17 04:40:13;;;;;;;17.00;10.70;;;;;;;3.12;83.76;99155.84;106333;1322;23279;-59
2021/12/17 04:43:01;;;;;;;22.10;10.90;;;;;;;3.09;83.82;99151.36;106306;1323;22454;-60
2021/12/17 04:45:39;;;;;;;18.90;10.70;;;;;;;3.10;83.83;99145.86;106250;1323;22494;-60
2021/12/17 04:59:22;;;;;;;15.80;11.70;;;;;;;3.05;83.66;99148.53;106259;1323;22380;-59
2021/12/17 05:01:52;;;;;;;16.60;11.30;;;;;;;3.03;83.62;99152.36;106207;1323;22463;-59
2021/12/17 05:04:20;;;;;;;19.50;11.10;;;;;;;3.01;83.31;99156.16;106257;1323;23231;-59
2021/12/17 05:06:49;;;;;;;20.70;11.30;;;;;;;3.00;83.44;99142.64;106270;1323;22579;-59
2021/12/17 05:20:53;;;;;;;24.00;14.00;;;;;;;3.01;83.46;99154.96;106232;1323;22519;-60
2021/12/17 05:23:11;;;;;;;16.70;10.80;;;;;;;3.00;82.87;99151.98;106376;1323;23125;-60
2021/12/17 05:25:39;;;;;;;22.80;12.40;;;;;;;2.99;83.15;99160.67;106274;1323;22557;-61
2021/12/17 05:28:08;;;;;;;20.00;10.90;;;;;;;2.98;83.04;99158.09;106284;1323;23256;-59
2021/12/17 05:30:40;;;;;;;23.60;13.40;;;;;;;2.98;83.04;99147.82;106282;1323;22472;-60
2021/12/17 05:33:08;;;;;;;21.50;15.10;;;;;;;2.98;83.10;99148.67;106253;1323;22305;-60
2021/12/17 05:35:36;;;;;;;20.90;12.50;;;;;;;2.97;83.08;99135.30;106267;1323;22436;-60
2021/12/17 05:38:06;;;;;;;16.90;10.90;;;;;;;2.95;82.93;99130.64;106234;1323;22581;-61
2021/12/17 05:40:34;;;;;;;21.30;12.20;;;;;;;2.92;81.64;99144.71;106230;1323;23241;-60
2021/12/17 05:43:04;;;;;;;17.10;10.50;;;;;;;2.89;80.89;99152.73;106248;1323;22394;-60
2021/12/17 05:45:48;;;;;;;18.90;9.80;;;;;;;2.87;80.71;99153.13;106311;1323;23102;-60
2021/12/17 05:48:21;;;;;;;16.90;9.50;;;;;;;2.86;80.52;99156.94;106240;1323;22579;-60
2021/12/17 05:50:52;;;;;;;16.90;10.10;;;;;;;2.85;80.77;99151.09;106329;1323;22604;-60
2021/12/17 05:53:21;;;;;;;18.10;10.20;;;;;;;2.81;80.39;99152.73;106242;1323;23125;-60
2021/12/17 05:55:50;;;;;;;22.50;11.50;;;;;;;2.79;79.71;99147.21;106257;1323;22306;-60
2021/12/17 05:58:18;;;;;;;21.60;13.00;;;;;;;2.80;79.95;99156.66;106183;1323;22409;-60
2021/12/17 06:00:49;;;;;;;22.30;12.70;;;;;;;2.79;79.76;99154.46;106156;1323;138385;-59
2021/12/17 06:03:34;;;;;;;22.30;14.00;;;;;;;2.76;79.67;99154.73;106250;1323;22480;-60
2021/12/17 06:06:06;;;;;;;16.60;9.90;;;;;;;2.74;79.58;99165.75;106268;1323;23115;-59
2021/12/17 06:08:34;;;;;;;18.90;12.50;;;;;;;2.75;79.10;99169.02;106314;1322;22636;-60
2021/12/17 06:11:02;;;;;;;23.70;15.40;;;;;;;2.76;79.54;99178.44;106243;1323;23207;-60
2021/12/17 06:13:30;;;;;;;18.50;12.80;;;;;;;2.75;79.79;99183.19;106318;1323;22595;-60
2021/12/17 06:15:58;;;;;;;17.80;12.60;;;;;;;2.76;79.55;99184.98;106247;1323;22277;-60
2021/12/17 06:18:27;;;;;;;19.60;12.90;;;;;;;2.76;79.34;99186.51;106267;1323;22443;-60
2021/12/17 06:20:56;;;;;;;21.20;12.20;;;;;;;2.72;79.05;99189.91;106248;1323;22849;-59
2021/12/17 06:23:24;;;;;;;20.70;12.20;;;;;;;2.71;79.49;99180.23;106306;1323;23237;-59
2021/12/17 06:25:54;;;;;;;20.20;10.90;;;;;;;2.70;79.51;99179.20;106265;1323;23216;-59
2021/12/17 06:28:22;;;;;;;19.10;11.10;;;;;;;2.68;79.07;99188.27;106309;1323;23323;-59
2021/12/17 06:30:53;;;;;;;20.40;9.80;;;;;;;2.64;79.36;99187.95;106250;1323;22474;-59
2021/12/17 06:33:26;;;;;;;17.60;10.80;;;;;;;2.65;79.49;99182.65;106251;1322;22562;-59
2021/12/17 06:35:54;;;;;;;18.80;11.20;;;;;;;2.66;79.37;99196.06;106238;1323;23196;-59
2021/12/17 06:38:24;;;;;;;17.70;11.50;;;;;;;2.65;79.66;99188.54;106237;1323;22532;-59
2021/12/17 06:40:53;;;;;;;20.00;10.80;;;;;;;2.64;79.92;99183.20;106240;1323;22423;-59
2021/12/17 06:43:27;;;;;;;21.70;13.00;;;;;;;2.65;79.94;99180.48;106312;1323;22365;-59
2021/12/17 06:46:05;;;;;;;20.30;13.10;;;;;;;2.65;79.99;99184.16;106228;1323;22501;-59
2021/12/17 06:48:33;;;;;;;24.10;13.40;;;;;;;2.63;80.01;99184.46;106256;1323;22323;-62
2021/12/17 06:59:54;;;;;;;21.10;13.50;;;;;;;2.65;80.27;99182.49;106284;1323;23028;-59
2021/12/17 07:18:45;;;;;;;26.50;17.00;;;;;;;2.63;80.65;99173.48;106258;1323;23255;-59
2021/12/17 07:21:09;;;;;;;20.70;14.10;;;;;;;2.63;80.55;99166.25;106341;1322;22815;-59
2021/12/17 07:39:58;;;;;;;18.00;12.70;;;;;;;2.60;80.93;99170.93;106271;1323;23054;-59
2021/12/17 07:42:32;;;;;;;22.60;14.20;;;;;;;2.60;81.06;99163.11;106287;1323;22519;-60
2021/12/17 07:45:00;;;;;;;19.80;11.70;;;;;;;2.61;81.13;99168.14;106305;1323;22516;-59
2021/12/17 07:47:35;;;;;;;18.30;11.30;;;;;;;2.61;81.15;99157.95;106242;1324;22516;-59
2021/12/17 07:50:21;;;;;;;21.80;12.40;;;;;;;2.62;81.28;99155.09;106268;1323;22605;-59
2021/12/17 07:53:07;;;;;;;19.60;12.40;;;;;;;2.61;81.39;99142.39;106346;1322;22385;-59
2021/12/17 07:55:47;;;;;;;22.10;12.50;;;;;;;2.63;81.35;99137.76;106234;1324;22273;-62
2021/12/17 07:58:20;;;;;;;19.20;12.00;;;;;;;2.64;81.58;99144.98;106217;1323;22410;-59
2021/12/17 08:00:48;;;;;;;18.50;12.00;;;;;;;2.63;81.71;99136.92;106366;1323;22285;-60
2021/12/17 08:03:17;;;;;;;23.30;13.00;;;;;;;2.65;81.64;99139.74;106255;1324;22403;-59
2021/12/17 08:05:51;;;;;;;19.00;11.70;;;;;;;2.66;81.64;99132.40;106218;1323;22416;-59
2021/12/17 08:08:21;;;;;;;18.10;11.70;;;;;;;2.65;81.54;99139.70;106034;1317;22635;-59
2021/12/17 08:11:03;;;;;;;22.60;11.30;;;;;;;2.65;81.53;99138.05;106255;1316;22363;-60
2021/12/17 08:13:33;;;;;;;23.60;15.30;;;;;;;2.68;81.52;99143.57;106324;1322;22626;-60
2021/12/17 08:18:56;;;;;;;26.10;17.00;;;;;;;2.66;81.64;99149.80;106163;1323;137469;-60
2021/12/17 08:32:06;;;;;;;20.30;12.50;;;;;;;2.71;81.47;99166.19;106247;1323;22646;-60
2021/12/17 08:34:45;;;;;;;20.40;13.10;;;;;;;2.74;81.52;99168.00;106253;1323;23218;-60
2021/12/17 08:37:13;;;;;;;24.30;13.60;;;;;;;2.80;81.49;99169.14;106287;1323;22382;-60
2021/12/17 08:39:42;;;;;;;22.10;14.00;;;;;;;2.84;81.52;99167.07;106249;1323;22793;-59
2021/12/17 08:42:34;;;;;;;18.20;11.60;;;;;;;2.84;81.13;99175.13;106259;1324;22479;-59
2021/12/17 08:45:07;;;;;;;19.30;10.60;;;;;;;2.82;81.27;99179.48;106279;1323;22407;-60
2021/12/17 08:47:48;;;;;;;19.60;11.30;;;;;;;2.82;81.14;99176.50;106283;1323;22758;-60
2021/12/17 08:50:48;;;;;;;19.30;12.00;;;;;;;2.84;80.96;99185.38;105984;1323;22602;-58
2021/12/17 08:53:16;;;;;;;18.20;10.30;;;;;;;2.85;80.88;99185.52;106279;1323;22550;-60
2021/12/17 08:55:45;;;;;;;19.50;10.60;;;;;;;2.86;80.93;99193.72;106290;1323;22497;-60
2021/12/17 08:58:15;;;;;;;20.20;11.30;;;;;;;2.89;80.88;99203.27;106157;1323;22532;-60
2021/12/17 09:00:46;;;;;;;18.40;11.50;;;;;;;2.90;80.85;99207.36;106245;1322;22524;-60
2021/12/17 09:03:23;;;;;;;26.70;13.30;;;;;;;2.92;81.05;99205.67;106257;1323;22466;-60
2021/12/17 09:06:10;;;;;;;23.50;12.50;;;;;;;2.95;80.74;99208.06;106306;1323;23040;-60
2021/12/17 09:08:45;;;;;;;24.90;14.20;;;;;;;2.99;80.91;99206.30;106264;1323;23834;-60
2021/12/17 09:11:12;;;;;;;23.30;14.70;;;;;;;2.99;80.24;99202.86;106114;1323;23238;-60
2021/12/17 09:13:51;;;;;;;19.20;11.10;;;;;;;3.00;80.85;99200.03;106207;1324;22576;-60
2021/12/17 09:16:22;;;;;;;17.70;11.60;;;;;;;3.05;80.50;99204.75;106263;1323;22487;-61
2021/12/17 09:18:53;;;;;;;20.00;10.90;;;;;;;3.05;80.26;99194.10;106243;1323;22503;-61
2021/12/17 09:21:39;;;;;;;18.30;10.90;;;;;;;3.03;80.56;99193.83;106309;1323;22606;-61
2021/12/17 09:24:15;;;;;;;21.80;12.70;;;;;;;3.01;80.46;99191.31;106272;1324;22459;-60
2021/12/17 09:27:15;;;;;;;19.00;12.00;;;;;;;3.01;80.72;99195.80;106283;1323;23285;-60
2021/12/17 09:30:16;;;;;;;19.40;12.80;;;;;;;3.05;80.98;99191.76;106248;1323;22273;-60
2021/12/17 09:32:45;;;;;;;21.00;11.70;;;;;;;3.03;80.40;99192.55;106288;1323;22297;-60
2021/12/17 09:35:15;;;;;;;21.20;12.00;;;;;;;3.06;80.53;99199.91;106291;1323;22474;-61
2021/12/17 09:37:43;;;;;;;19.00;11.50;;;;;;;3.09;80.43;99201.23;106235;1323;22508;-61
2021/12/17 09:40:13;;;;;;;21.90;14.30;;;;;;;3.10;80.39;99200.35;106291;1323;22738;-60
2021/12/17 09:42:44;;;;;;;21.10;12.80;;;;;;;3.13;80.56;99199.52;106262;1323;23000;-60
2021/12/17 09:45:15;;;;;;;17.60;11.70;;;;;;;3.14;80.23;99201.42;106291;1319;22567;-61
2021/12/17 09:47:45;;;;;;;19.70;12.50;;;;;;;3.16;79.96;99206.45;106308;1323;23175;-60
2021/12/17 09:50:18;;;;;;;19.20;13.20;;;;;;;3.17;79.46;99201.19;105994;1315;385300;-60
2021/12/17 09:52:46;;;;;;;20.70;11.40;;;;;;;3.16;79.75;99191.49;106315;1323;23270;-60
2021/12/17 09:55:15;;;;;;;20.70;12.20;;;;;;;3.20;79.88;99194.70;106299;1323;22501;-60
2021/12/17 09:57:42;;;;;;;18.80;11.80;;;;;;;3.21;79.77;99188.55;106318;1323;23545;-60
2021/12/17 10:00:16;;;;;;;17.20;11.30;;;;;;;3.21;79.53;99177.52;106262;1323;22430;-60
2021/12/17 10:02:45;;;;;;;20.00;12.20;;;;;;;3.22;80.17;99173.66;106303;1323;22389;-60
2021/12/17 10:05:20;;;;;;;24.50;17.90;;;;;;;3.24;79.77;99172.41;106309;1323;22439;-60
2021/12/17 10:07:59;;;;;;;26.00;20.00;;;;;;;3.22;79.65;99167.11;106278;1323;23332;-60
2021/12/17 10:10:35;;;;;;;26.30;16.20;;;;;;;3.23;79.52;99169.09;106276;1323;23668;-60
2021/12/17 10:13:07;;;;;;;21.60;14.20;;;;;;;3.23;79.49;99168.98;106282;1323;22459;-60
2021/12/17 10:15:37;;;;;;;22.00;14.80;;;;;;;3.24;79.74;99163.44;106289;1323;22470;-60
2021/12/17 10:18:05;;;;;;;23.50;14.60;;;;;;;3.29;79.70;99157.49;106305;1323;22386;-60
2021/12/17 10:20:42;;;;;;;21.80;15.60;;;;;;;3.35;79.96;99160.49;106309;1323;22378;-60
2021/12/17 10:23:12;;;;;;;17.60;12.20;;;;;;;3.37;79.24;99161.27;106289;1320;22420;-59
2021/12/17 10:25:44;;;;;;;19.00;12.50;;;;;;;3.36;79.22;99156.82;106328;1323;22384;-60
2021/12/17 10:28:14;;;;;;;21.60;14.20;;;;;;;3.37;79.32;99154.34;106306;1323;22475;-60
2021/12/17 10:30:45;;;;;;;21.80;13.70;;;;;;;3.41;79.49;99150.92;106293;1323;22570;-60
2021/12/17 10:33:17;;;;;;;24.70;13.80;;;;;;;3.43;79.56;99146.03;106295;1322;23000;-60
2021/12/17 10:35:49;;;;;;;22.20;13.10;;;;;;;3.42;79.47;99144.35;106300;1323;22382;-60
2021/12/17 10:38:24;;;;;;;23.00;12.60;;;;;;;3.41;79.42;99147.36;106265;1322;23268;-59
2021/12/17 10:41:07;;;;;;;23.10;13.70;;;;;;;3.39;78.90;99146.30;106283;1323;23109;-60
2021/12/17 10:43:40;;;;;;;23.70;13.60;;;;;;;3.36;78.71;99151.44;106307;1323;22491;-60
2021/12/17 10:46:22;;;;;;;17.90;12.40;;;;;;;3.33;78.54;99148.88;106238;1323;22466;-61
2021/12/17 10:49:00;;;;;;;18.20;12.20;;;;;;;3.32;78.77;99145.20;106250;1323;22594;-59
2021/12/17 10:54:09;;;;;;;19.50;12.60;;;;;;;3.33;78.62;99136.96;106301;1323;22424;-61
2021/12/17 10:56:39;;;;;;;20.90;10.80;;;;;;;3.34;78.65;99142.10;106296;1323;22526;-60
2021/12/17 10:59:12;;;;;;;22.30;12.00;;;;;;;3.36;79.06;99135.82;106292;1323;22265;-58
2021/12/17 11:01:45;;;;;;;20.20;12.60;;;;;;;3.37;78.21;99144.27;106306;1322;22341;-59
2021/12/17 11:04:25;;;;;;;25.30;13.70;;;;;;;3.39;78.63;99136.52;106306;1323;22417;-60
2021/12/17 11:06:57;;;;;;;22.50;14.20;;;;;;;3.42;78.21;99135.14;106322;1323;23240;-60
2021/12/17 11:09:45;;;;;;;17.60;12.80;;;;;;;3.39;77.98;99153.12;106255;1323;22807;-60
2021/12/17 11:12:31;;;;;;;26.00;14.30;;;;;;;3.33;77.45;99141.70;106305;1323;22461;-60
2021/12/17 11:15:12;;;;;;;22.30;14.10;;;;;;;3.32;77.34;99141.09;106321;1323;22599;-60
2021/12/17 11:17:44;;;;;;;34.00;12.70;;;;;;;3.35;77.53;99137.47;106343;1323;23254;-60
2021/12/17 11:20:17;;;;;;;21.10;12.50;;;;;;;3.41;77.20;99137.89;106291;1323;22444;-60
2021/12/17 11:22:48;;;;;;;18.80;11.40;;;;;;;3.46;76.61;99142.39;106277;1323;22486;-59
2021/12/17 11:25:17;;;;;;;19.20;12.00;;;;;;;3.39;75.77;99146.67;106332;1323;22485;-60
2021/12/17 11:27:46;;;;;;;18.20;10.80;;;;;;;3.34;76.16;99133.91;106298;1323;22586;-59
2021/12/17 11:30:21;;;;;;;24.70;12.70;;;;;;;3.36;76.35;99135.61;106293;1323;23365;-60
2021/12/17 11:32:50;;;;;;;18.40;13.10;;;;;;;3.39;77.05;99129.89;106315;1322;22481;-59
2021/12/17 11:35:25;;;;;;;19.00;13.00;;;;;;;3.37;76.25;99132.02;106301;1323;22587;-59
2021/12/17 11:37:59;;;;;;;19.70;12.10;;;;;;;3.32;76.57;99125.31;106299;1323;22516;-59
2021/12/17 11:40:33;;;;;;;;;;;;;;;3.33;76.76;99128.84;106343;1322;22619;-61
2021/12/17 11:43:15;;;;;;;17.60;11.20;;;;;;;3.29;76.60;99125.85;106318;1323;22422;-59
2021/12/17 11:45:55;;;;;;;21.80;13.70;;;;;;;3.30;77.12;99119.61;106263;1323;23295;-59
2021/12/17 11:48:25;;;;;;;21.10;14.40;;;;;;;3.30;77.30;99120.27;106290;1323;22550;-59
2021/12/17 11:51:25;;;;;;;17.80;12.10;;;;;;;3.35;77.60;99123.54;106290;1322;23185;-59
2021/12/17 11:54:07;;;;;;;21.90;14.50;;;;;;;3.47;77.18;99130.01;106343;1323;23169;-60
2021/12/17 11:56:41;;;;;;;22.70;14.80;;;;;;;3.49;77.22;99128.46;106318;1323;22408;-60
2021/12/17 11:59:31;;;;;;;;;;;;;;;3.47;76.87;99136.10;106323;1323;22500;-60
2021/12/17 12:02:19;;;;;;;17.90;12.20;;;;;;;3.40;76.75;99134.70;106298;1322;22969;-60
2021/12/17 12:05:01;;;;;;;16.00;11.90;;;;;;;3.33;76.33;99139.25;106305;1323;23228;-60
2021/12/17 12:07:29;;;;;;;20.10;13.70;;;;;;;3.28;76.16;99133.44;106301;1323;22602;-61
2021/12/17 12:10:22;;;;;;;19.00;13.50;;;;;;;3.22;76.55;99130.55;106294;1323;23509;-60
2021/12/17 12:12:50;;;;;;;21.50;14.00;;;;;;;3.15;76.49;99123.73;106322;1323;22444;-60
2021/12/17 12:15:22;;;;;;;17.20;13.80;;;;;;;3.15;76.58;99133.16;106304;1319;23196;-60
2021/12/17 12:18:17;;;;;;;23.90;15.30;;;;;;;3.14;76.54;99130.17;106281;1323;22472;-60
2021/12/17 12:20:50;;;;;;;19.50;14.10;;;;;;;3.13;76.97;99129.08;106339;1322;23354;-60
2021/12/17 12:23:32;;;;;;;19.60;13.60;;;;;;;3.10;76.51;99131.68;106313;1323;22448;-60
2021/12/17 12:26:11;;;;;;;19.20;14.80;;;;;;;3.02;76.79;99136.08;106313;1322;22480;-60
2021/12/17 12:28:45;;;;;;;20.10;15.20;;;;;;;2.94;76.87;99128.11;106284;1323;22320;-60
2021/12/17 12:31:30;;;;;;;21.70;17.00;;;;;;;2.92;77.14;99148.70;106303;1322;22287;-60
2021/12/17 12:34:05;;;;;;;21.80;14.70;;;;;;;2.88;77.31;99138.52;106295;1323;23414;-60
2021/12/17 12:36:51;;;;;;;19.90;15.10;;;;;;;2.89;77.05;99141.42;106322;1323;23278;-59
2021/12/17 12:39:22;;;;;;;22.80;15.80;;;;;;;2.90;77.22;99143.05;106303;1323;22594;-59
2021/12/17 12:41:58;;;;;;;23.00;14.50;;;;;;;2.89;76.84;99148.60;106283;1323;22511;-60
2021/12/17 12:44:44;;;;;;;20.20;14.60;;;;;;;2.85;76.74;99156.63;106293;1323;22454;-60
2021/12/17 12:47:14;;;;;;;25.00;15.80;;;;;;;2.81;76.82;99151.83;106326;1323;22536;-60
2021/12/17 12:49:49;;;;;;;24.50;16.40;;;;;;;2.81;77.12;99137.07;106332;1323;22305;-59
2021/12/17 12:52:29;;;;;;;24.90;17.80;;;;;;;2.84;77.01;99155.31;106248;1323;22418;-60
2021/12/17 12:55:13;;;;;;;23.30;16.90;;;;;;;2.83;77.05;99143.45;106298;1323;22493;-60
2021/12/17 12:57:48;;;;;;;23.70;17.30;;;;;;;2.82;77.39;99139.23;106337;1322;22463;-60
2021/12/17 13:00:39;;;;;;;22.20;17.10;;;;;;;2.84;77.71;99144.46;106274;1323;22513;-60
2021/12/17 13:03:10;;;;;;;23.80;19.50;;;;;;;2.84;77.42;99141.52;106248;1323;22506;-60
2021/12/17 13:05:40;;;;;;;25.80;17.60;;;;;;;2.81;77.78;99130.77;106290;1323;22735;-59
2021/12/17 13:08:14;;;;;;;23.90;18.20;;;;;;;2.81;77.69;99129.61;106277;1323;23136;-60
2021/12/17 13:11:04;;;;;;;23.40;19.10;;;;;;;2.83;77.59;99134.89;106260;1323;22541;-59
2021/12/17 13:13:51;;;;;;;23.20;19.10;;;;;;;2.82;77.66;99132.60;106326;1323;22648;-60
2021/12/17 13:16:43;;;;;;;23.20;19.10;;;;;;;2.82;77.83;99136.20;106304;1323;22761;-59
2021/12/17 13:22:13;;;;;;;23.10;20.50;;;;;;;2.81;77.85;99133.06;106279;1323;22579;-60
2021/12/17 13:24:44;;;;;;;30.30;24.30;;;;;;;2.80;77.80;99130.54;106317;1323;23141;-60
2021/12/17 13:27:12;;;;;;;27.00;20.80;;;;;;;2.79;78.13;99120.59;106285;1323;22453;-60
2021/12/17 13:29:44;;;;;;;20.10;17.00;;;;;;;2.79;77.97;99128.73;106304;1323;22394;-60
2021/12/17 13:32:15;;;;;;;25.30;22.00;;;;;;;2.81;78.04;99115.34;106300;1323;23002;-60
2021/12/17 13:34:49;;;;;;;25.10;22.20;;;;;;;2.81;77.99;99112.42;106272;1323;22434;-60
2021/12/17 13:37:24;;;;;;;28.10;24.50;;;;;;;2.80;77.88;99112.39;106320;1323;22390;-59
2021/12/17 13:39:53;;;;;;;;;;;;;;;2.78;78.08;99109.66;106316;1323;22503;-60
2021/12/17 13:42:25;;;;;;;24.00;21.00;;;;;;;2.75;78.18;99115.63;106320;1322;22440;-60
2021/12/17 13:44:56;;;;;;;27.20;23.70;;;;;;;2.73;77.85;99118.46;106332;1323;22603;-60
2021/12/17 13:47:32;;;;;;;27.50;23.00;;;;;;;2.73;77.92;99115.84;106285;1323;22448;-60
2021/12/17 13:50:14;;;;;;;25.90;21.90;;;;;;;2.74;78.03;99121.77;106315;1323;23173;-59
2021/12/17 13:53:02;;;;;;;26.30;22.10;;;;;;;2.76;78.23;99128.85;106344;1323;23256;-60
2021/12/17 13:55:37;;;;;;;29.80;22.30;;;;;;;2.76;78.24;99110.34;106246;1323;22622;-60
2021/12/17 13:58:11;;;;;;;27.20;23.70;;;;;;;2.75;78.12;99120.71;106321;1323;22416;-60
2021/12/17 14:00:43;;;;;;;24.30;20.70;;;;;;;2.71;78.26;99119.66;106313;1323;22636;-60
2021/12/17 14:03:15;;;;;;;25.10;19.80;;;;;;;2.71;78.03;99110.09;106312;1323;22388;-60
2021/12/17 14:05:48;;;;;;;24.10;20.90;;;;;;;2.75;78.15;99111.85;106310;1323;23637;-59
2021/12/17 14:08:20;;;;;;;27.90;23.80;;;;;;;2.75;78.04;99121.98;106302;1323;22562;-60
2021/12/17 14:10:50;;;;;;;25.60;22.90;;;;;;;2.72;78.16;99111.51;106326;1323;22528;-60
2021/12/17 14:13:23;;;;;;;25.60;21.10;;;;;;;2.72;78.48;99121.17;106287;1321;22489;-59
2021/12/17 14:16:02;;;;;;;25.20;21.00;;;;;;;2.73;78.16;99129.32;106353;1323;22582;-60
2021/12/17 14:18:31;;;;;;;26.70;22.60;;;;;;;2.74;78.17;99118.38;106314;1322;22704;-59
2021/12/17 14:21:04;;;;;;;26.40;23.60;;;;;;;2.76;78.26;99124.50;106342;1323;23195;-59
2021/12/17 14:23:39;;;;;;;32.80;29.30;;;;;;;2.75;78.14;99124.85;106255;1323;22588;-59
2021/12/17 14:26:09;;;;;;;29.10;25.30;;;;;;;2.73;78.15;99120.22;106265;1323;23036;-60
2021/12/17 14:28:40;;;;;;;25.10;22.50;;;;;;;2.75;78.22;99122.50;106348;1323;22488;-59
2021/12/17 14:31:16;;;;;;;30.40;25.00;;;;;;;2.78;78.45;99114.83;106350;1323;22426;-59
2021/12/17 14:33:57;;;;;;;31.10;27.70;;;;;;;2.74;78.05;99119.70;106321;1322;22608;-59
2021/12/17 14:36:27;;;;;;;30.00;26.90;;;;;;;2.70;78.15;99134.46;106292;1323;22614;-59
2021/12/17 14:39:13;;;;;;;29.70;26.40;;;;;;;2.68;78.23;99120.60;106339;1322;23141;-59
2021/12/17 14:41:57;;;;;;;28.70;25.60;;;;;;;2.67;78.32;99103.73;106325;1323;23155;-60
2021/12/17 14:47:10;;;;;;;34.80;31.20;;;;;;;2.68;78.04;99108.77;106277;1323;23349;-59
2021/12/17 15:00:51;;;;;;;37.10;33.20;;;;;;;2.63;78.22;99122.98;106332;1317;22616;-60